createdAt,value
2023-04-03T00:01:05.422Z,1.58
2023-04-03T00:03:52.771Z,1.60
2023-04-03T00:06:38.486Z,1.20
2023-04-03T00:09:23.985Z,1.88
2023-04-03T00:12:09.708Z,1.42
2023-04-03T00:14:55.392Z,1.38
2023-04-03T00:17:41.025Z,1.60
2023-04-03T00:20:28.622Z,1.65
2023-04-03T00:23:14.249Z,1.35
2023-04-03T00:25:59.774Z,1.50
2023-04-03T00:28:45.447Z,1.20
2023-04-03T00:31:31.044Z,1.42
2023-04-03T00:34:16.514Z,1.20
2023-04-03T00:37:03.655Z,1.58
2023-04-03T00:39:49.788Z,1.48
2023-04-03T00:42:35.620Z,1.60
2023-04-03T00:45:34.344Z,1.40
2023-04-03T00:48:23.664Z,1.63
2023-04-03T00:51:13.986Z,1.80
2023-04-03T00:54:03.608Z,1.50
2023-04-03T00:56:51.202Z,1.63
2023-04-03T00:59:45.119Z,1.38
2023-04-03T01:02:31.349Z,1.40
2023-04-03T01:05:18.768Z,1.65
2023-04-03T01:08:04.458Z,1.23
2023-04-03T01:10:51.620Z,1.38
2023-04-03T01:13:38.881Z,1.45
2023-04-03T01:16:26.533Z,1.60
2023-04-03T01:19:20.870Z,1.77
2023-04-03T01:22:20.794Z,1.60
2023-04-03T01:25:06.518Z,1.50
2023-04-03T01:27:53.789Z,1.30
2023-04-03T01:30:46.400Z,1.48
2023-04-03T01:33:33.909Z,1.52
2023-04-03T01:36:22.400Z,1.58
2023-04-03T01:39:08.529Z,1.50
2023-04-03T01:41:54.460Z,1.50
2023-04-03T01:44:47.218Z,1.80
2023-04-03T01:47:33.174Z,1.88
2023-04-03T01:50:20.581Z,1.52
2023-04-03T01:53:07.200Z,1.70
2023-04-03T01:55:53.449Z,1.58
2023-04-03T01:58:40.477Z,1.48
2023-04-03T02:01:27.095Z,1.45
2023-04-03T02:04:13.867Z,1.52
2023-04-03T02:07:02.524Z,1.55
2023-04-03T02:09:48.181Z,1.58
2023-04-03T02:12:34.382Z,1.33
2023-04-03T02:15:19.840Z,1.70
2023-04-03T02:18:07.444Z,1.60
2023-04-03T02:20:53.811Z,1.20
2023-04-03T02:23:40.865Z,1.30
2023-04-03T02:26:26.896Z,1.80
2023-04-03T02:29:12.625Z,1.80
2023-04-03T02:31:58.030Z,1.75
2023-04-03T02:34:44.396Z,1.60
2023-04-03T02:37:31.042Z,1.67
2023-04-03T02:40:17.999Z,2.00
2023-04-03T02:43:03.739Z,1.50
2023-04-03T02:45:51.530Z,1.70
2023-04-03T02:48:37.669Z,1.95
2023-04-03T02:51:24.023Z,1.98
2023-04-03T02:54:11.651Z,1.77
2023-04-03T02:57:02.943Z,2.20
2023-04-03T02:59:48.849Z,2.13
2023-04-03T03:02:34.630Z,1.60
2023-04-03T03:05:20.674Z,1.70
2023-04-03T03:08:06.714Z,1.70
2023-04-03T03:10:52.830Z,2.15
2023-04-03T03:13:40.259Z,1.83
2023-04-03T03:16:26.113Z,1.55
2023-04-03T03:19:12.161Z,2.03
2023-04-03T03:21:59.014Z,2.08
2023-04-03T03:24:44.853Z,1.65
2023-04-03T03:27:30.631Z,1.83
2023-04-03T03:30:18.310Z,2.08
2023-04-03T03:33:04.996Z,1.90
2023-04-03T03:35:51.688Z,1.70
2023-04-03T03:38:38.037Z,2.00
2023-04-03T03:41:24.701Z,2.10
2023-04-03T03:44:10.430Z,1.77
2023-04-03T03:46:58.424Z,1.90
2023-04-03T03:49:44.610Z,1.63
2023-04-03T03:52:31.292Z,2.05
2023-04-03T03:55:17.240Z,1.63
2023-04-03T03:58:04.506Z,2.00
2023-04-03T04:00:51.629Z,1.95
2023-04-03T04:03:38.770Z,1.88
2023-04-03T04:06:25.552Z,1.80
2023-04-03T04:09:15.725Z,1.60
2023-04-03T04:12:01.731Z,2.10
2023-04-03T04:14:50.245Z,2.22
2023-04-03T04:17:36.358Z,2.03
2023-04-03T04:20:25.728Z,1.85
2023-04-03T04:23:12.935Z,1.98
2023-04-03T04:25:59.384Z,2.47
2023-04-03T04:28:47.467Z,3.42
2023-04-03T04:31:33.650Z,2.17
2023-04-03T04:34:19.218Z,3.50
2023-04-03T04:37:06.402Z,2.20
2023-04-03T04:39:52.794Z,2.15
2023-04-03T04:42:39.144Z,1.90
2023-04-03T04:45:26.114Z,2.30
2023-04-03T04:48:12.248Z,2.90
2023-04-03T04:50:58.260Z,4.78
2023-04-03T04:53:45.989Z,4.38
2023-04-03T04:56:34.250Z,3.47
2023-04-03T04:59:21.925Z,4.05
2023-04-03T05:02:08.393Z,3.30
2023-04-03T05:04:54.943Z,2.30
2023-04-03T05:07:45.933Z,2.40
2023-04-03T05:10:33.666Z,2.13
2023-04-03T05:13:19.739Z,2.30
2023-04-03T05:16:06.436Z,2.40
2023-04-03T05:18:52.296Z,2.50
2023-04-03T05:21:41.321Z,1.67
2023-04-03T05:24:31.569Z,3.23
2023-04-03T05:27:19.071Z,2.28
2023-04-03T05:30:10.607Z,2.10
2023-04-03T05:33:00.438Z,2.55
2023-04-03T05:36:04.389Z,3.10
2023-04-03T05:38:52.031Z,2.85
2023-04-03T05:41:40.636Z,2.58
2023-04-03T05:44:28.997Z,2.83
2023-04-03T05:47:16.432Z,3.15
2023-04-03T05:50:02.075Z,4.22
2023-04-03T05:52:51.948Z,4.40
2023-04-03T05:55:37.583Z,3.42
2023-04-03T05:58:23.672Z,3.20
2023-04-03T06:01:12.968Z,2.22
2023-04-03T06:04:00.245Z,2.38
2023-04-03T06:06:49.337Z,2.60
2023-04-03T06:09:34.943Z,2.45
2023-04-03T06:12:21.159Z,2.22
2023-04-03T06:15:09.191Z,2.30
2023-04-03T06:17:56.273Z,3.80
2023-04-03T06:20:42.094Z,2.28
2023-04-03T06:23:28.939Z,1.75
2023-04-03T06:26:14.652Z,2.40
2023-04-03T06:29:01.053Z,2.30
2023-04-03T06:31:47.353Z,1.58
2023-04-03T06:34:34.595Z,2.00
2023-04-03T06:37:22.182Z,1.60
2023-04-03T06:40:14.579Z,2.20
2023-04-03T06:43:00.898Z,1.60
2023-04-03T06:45:47.615Z,1.48
2023-04-03T06:48:33.687Z,1.52
2023-04-03T06:51:23.684Z,2.33
2023-04-03T06:54:09.507Z,2.58
2023-04-03T06:56:55.144Z,1.95
2023-04-03T06:59:41.351Z,2.42
2023-04-03T07:02:27.480Z,1.77
2023-04-03T07:05:13.111Z,1.30
2023-04-03T07:08:00.192Z,1.90
2023-04-03T07:10:46.066Z,1.58
2023-04-03T07:13:32.330Z,2.13
2023-04-03T07:16:18.305Z,1.85
2023-04-03T07:19:04.383Z,1.50
2023-04-03T07:21:50.611Z,1.52
2023-04-03T07:24:37.652Z,1.30
2023-04-03T07:27:23.629Z,1.85
2023-04-03T07:30:10.242Z,1.40
2023-04-03T07:32:56.501Z,1.40
2023-04-03T07:35:42.638Z,1.48
2023-04-03T07:38:28.649Z,1.45
2023-04-03T07:41:19.342Z,1.88
2023-04-03T07:44:06.559Z,1.50
2023-04-03T07:46:52.505Z,1.20
2023-04-03T07:49:40.861Z,2.30
2023-04-03T07:52:26.845Z,1.50
2023-04-03T07:55:13.205Z,1.30
2023-04-03T07:58:00.429Z,1.25
2023-04-03T08:00:46.497Z,1.70
2023-04-03T08:03:33.576Z,1.23
2023-04-03T08:06:26.222Z,1.02
2023-04-03T08:09:20.237Z,1.30
2023-04-03T08:12:06.444Z,1.70
2023-04-03T08:14:53.715Z,1.30
2023-04-03T08:17:39.790Z,3.05
2023-04-03T08:20:25.975Z,2.45
2023-04-03T08:23:12.245Z,1.05
2023-04-03T08:25:58.005Z,0.95
2023-04-03T08:28:43.904Z,0.90
2023-04-03T08:31:31.247Z,1.00
2023-04-03T08:34:18.096Z,0.75
2023-04-03T08:37:03.888Z,1.20
2023-04-03T08:39:49.656Z,0.98
2023-04-03T08:42:45.776Z,0.82
2023-04-03T08:45:43.251Z,0.88
2023-04-03T08:48:34.590Z,0.65
2023-04-03T08:51:21.767Z,0.70
2023-04-03T08:54:21.726Z,0.65
2023-04-03T08:57:07.709Z,0.68
2023-04-03T08:59:53.673Z,0.40
2023-04-03T09:02:44.218Z,0.40
2023-04-03T09:05:40.462Z,0.65
2023-04-03T09:08:29.486Z,0.57
2023-04-03T09:11:23.974Z,0.60
2023-04-03T09:14:17.089Z,0.43
2023-04-03T09:17:10.306Z,0.50
2023-04-03T09:20:02.760Z,0.50
2023-04-03T09:22:53.028Z,0.50
2023-04-03T09:25:40.460Z,0.95
2023-04-03T09:28:26.679Z,0.77
2023-04-03T09:31:22.160Z,0.30
2023-04-03T09:34:16.029Z,0.20
2023-04-03T09:37:09.712Z,0.50
2023-04-03T09:39:57.095Z,0.22
2023-04-03T09:42:46.281Z,0.40
2023-04-03T09:45:37.185Z,0.50
2023-04-03T09:48:24.834Z,0.30
2023-04-03T09:51:16.877Z,0.57
2023-04-03T09:54:41.881Z,0.50
2023-04-03T09:57:34.258Z,0.30
2023-04-03T10:00:23.889Z,0.25
2023-04-03T10:03:26.511Z,0.20
2023-04-03T10:06:24.871Z,0.40
2023-04-03T10:09:22.607Z,0.50
2023-04-03T10:12:11.430Z,0.40
2023-04-03T10:14:59.755Z,0.30
2023-04-03T10:17:56.258Z,0.32
2023-04-03T10:20:48.018Z,0.50
2023-04-03T10:23:43.340Z,0.32
2023-04-03T10:26:39.699Z,0.40
2023-04-03T10:29:37.466Z,0.55
2023-04-03T10:32:45.499Z,0.50
2023-04-03T10:35:42.894Z,0.40
2023-04-03T10:38:38.719Z,0.43
2023-04-03T10:41:32.042Z,0.50
2023-04-03T10:44:28.195Z,0.40
2023-04-03T10:47:21.850Z,0.65
2023-04-03T10:50:24.743Z,0.52
2023-04-03T10:53:20.038Z,0.70
2023-04-03T10:56:12.786Z,0.70
2023-04-03T10:59:04.054Z,0.60
2023-04-03T11:01:54.603Z,0.60
2023-04-03T11:04:44.703Z,0.55
2023-04-03T11:07:38.575Z,0.52
2023-04-03T11:10:31.534Z,0.70
2023-04-03T11:13:21.410Z,0.90
2023-04-03T11:16:07.860Z,1.00
2023-04-03T11:18:58.400Z,0.75
2023-04-03T11:21:48.361Z,0.80
2023-04-03T11:24:39.490Z,0.65
2023-04-03T11:30:19.536Z,0.88
2023-04-03T11:33:36.989Z,0.70
2023-04-03T11:36:29.606Z,1.23
2023-04-03T11:39:24.824Z,1.05
2023-04-03T11:42:33.611Z,0.90
2023-04-03T11:45:32.627Z,0.75
2023-04-03T11:48:50.411Z,0.50
2023-04-03T11:51:43.682Z,0.50
2023-04-03T11:54:49.779Z,0.70
2023-04-03T11:58:02.167Z,0.90
2023-04-03T12:01:07.744Z,0.43
2023-04-03T12:04:10.134Z,0.70
2023-04-03T12:07:15.931Z,0.77
2023-04-03T12:10:02.034Z,0.55
2023-04-03T12:13:03.489Z,0.50
2023-04-03T12:15:52.882Z,0.70
2023-04-03T12:18:45.002Z,0.77
2023-04-03T12:22:08.342Z,0.60
2023-04-03T12:24:54.590Z,0.60
2023-04-03T12:27:43.359Z,0.70
2023-04-03T12:30:32.065Z,0.82
2023-04-03T12:33:33.337Z,0.50
2023-04-03T12:36:29.063Z,0.77
2023-04-03T12:39:45.506Z,0.65
2023-04-03T12:42:56.617Z,0.70
2023-04-03T12:45:47.607Z,0.68
2023-04-03T12:48:39.437Z,0.80
2023-04-03T12:51:35.289Z,0.68
2023-04-03T12:54:24.982Z,1.00
2023-04-03T12:57:12.540Z,0.63
2023-04-03T12:59:58.817Z,0.88
2023-04-03T13:02:47.511Z,0.85
2023-04-03T13:05:36.804Z,0.93
2023-04-03T13:08:22.866Z,0.88
2023-04-03T13:11:12.067Z,0.85
2023-04-03T13:14:00.208Z,0.80
2023-04-03T13:16:54.649Z,1.00
2023-04-03T13:19:42.942Z,1.55
2023-04-03T13:22:34.002Z,0.73
2023-04-03T13:25:21.898Z,0.80
2023-04-03T13:28:13.768Z,0.90
2023-04-03T13:31:11.341Z,1.10
2023-04-03T13:34:04.100Z,0.80
2023-04-03T13:36:59.292Z,0.70
2023-04-03T13:39:54.096Z,1.00
2023-04-03T13:42:42.257Z,0.75
2023-04-03T13:45:33.473Z,1.10
2023-04-03T13:51:21.691Z,0.90
2023-04-03T13:54:20.858Z,0.75
2023-04-03T13:57:14.013Z,0.82
2023-04-03T14:00:00.038Z,0.82
2023-04-03T14:02:48.935Z,1.40
2023-04-03T14:05:34.541Z,0.65
2023-04-03T14:08:26.431Z,1.30
2023-04-03T14:11:23.412Z,1.00
2023-04-03T14:14:14.804Z,0.93
2023-04-03T14:17:03.870Z,0.82
2023-04-03T14:19:51.496Z,1.02
2023-04-03T14:22:37.312Z,1.13
2023-04-03T14:25:25.079Z,0.80
2023-04-03T14:28:18.708Z,1.00
2023-04-03T14:31:04.933Z,0.90
2023-04-03T14:33:51.495Z,1.02
2023-04-03T14:36:37.622Z,0.90
2023-04-03T14:39:23.769Z,0.90
2023-04-03T14:42:13.832Z,1.13
2023-04-03T14:45:02.214Z,0.85
2023-04-03T14:47:50.438Z,1.20
2023-04-03T14:50:36.544Z,1.00
2023-04-03T14:53:37.967Z,1.08
2023-04-03T14:56:28.295Z,11.63
2023-04-03T14:59:16.381Z,10.13
2023-04-03T15:02:03.932Z,10.25
2023-04-03T15:04:51.450Z,6.82
2023-04-03T15:07:40.706Z,1.60
2023-04-03T15:10:28.724Z,2.70
2023-04-03T15:13:14.786Z,12.90
2023-04-03T15:16:00.908Z,6.25
2023-04-03T15:18:48.658Z,1.90
2023-04-03T15:21:34.393Z,4.18
2023-04-03T15:24:19.809Z,4.30
2023-04-03T15:27:06.053Z,1.70
2023-04-03T15:29:51.758Z,1.60
2023-04-03T15:32:37.849Z,1.42
2023-04-03T15:35:25.463Z,2.10
2023-04-03T15:38:11.564Z,2.30
2023-04-03T15:40:57.430Z,1.52
2023-04-03T15:43:43.094Z,1.50
2023-04-03T15:46:29.385Z,2.83
2023-04-03T15:49:15.203Z,2.97
2023-04-03T15:52:02.325Z,2.25
2023-04-03T15:54:48.447Z,1.63
2023-04-03T16:00:26.333Z,1.35
2023-04-03T16:03:16.531Z,2.70
2023-04-03T16:06:02.469Z,2.25
2023-04-03T16:08:50.381Z,1.65
2023-04-03T16:11:38.326Z,1.23
2023-04-03T16:14:23.961Z,1.15
2023-04-03T16:17:09.928Z,2.20
2023-04-03T16:19:56.645Z,5.53
2023-04-03T16:22:43.604Z,4.55
2023-04-03T16:25:31.940Z,2.75
2023-04-03T16:28:19.096Z,4.03
2023-04-03T16:31:07.932Z,6.78
2023-04-03T16:33:53.945Z,5.50
2023-04-03T16:36:39.891Z,2.20
2023-04-03T16:39:25.644Z,1.10
2023-04-03T16:42:13.002Z,2.80
2023-04-03T16:45:00.911Z,1.85
2023-04-03T16:47:46.855Z,4.30
2023-04-03T16:50:32.743Z,1.80
2023-04-03T16:53:18.566Z,2.00
2023-04-03T16:56:04.967Z,2.92
2023-04-03T16:58:52.222Z,2.60
2023-04-03T17:01:38.343Z,2.60
2023-04-03T17:04:24.395Z,1.83
2023-04-03T17:07:10.228Z,1.77
2023-04-03T17:09:56.323Z,2.58
2023-04-03T17:12:41.864Z,2.60
2023-04-03T17:15:29.141Z,2.40
2023-04-03T17:18:15.693Z,3.80
2023-04-03T17:21:03.299Z,2.10
2023-04-03T17:23:53.861Z,2.25
2023-04-03T17:26:40.212Z,1.63
2023-04-03T17:29:32.296Z,1.90
2023-04-03T17:32:20.375Z,1.35
2023-04-03T17:35:08.951Z,2.28
2023-04-03T17:37:56.547Z,4.05
2023-04-03T17:40:43.203Z,5.05
2023-04-03T17:43:29.745Z,2.30
2023-04-03T17:46:17.569Z,4.38
2023-04-03T17:49:05.226Z,2.22
2023-04-03T17:51:51.087Z,3.13
2023-04-03T17:54:37.207Z,2.85
2023-04-03T17:57:23.100Z,3.25
2023-04-03T18:00:10.232Z,3.80
2023-04-03T18:02:58.916Z,5.47
2023-04-03T18:05:46.292Z,5.13
2023-04-03T18:08:34.565Z,4.55
2023-04-03T18:11:27.759Z,10.02
2023-04-03T18:14:16.438Z,5.43
2023-04-03T18:17:02.104Z,6.57
2023-04-03T18:19:48.431Z,10.55
2023-04-03T18:22:35.992Z,7.90
2023-04-03T18:25:22.122Z,2.30
2023-04-03T18:28:08.012Z,3.33
2023-04-03T18:30:54.100Z,2.53
2023-04-03T18:33:40.039Z,1.30
2023-04-03T18:36:27.206Z,1.83
2023-04-03T18:39:14.559Z,1.67
2023-04-03T18:42:05.132Z,1.90
2023-04-03T18:44:54.804Z,2.05
2023-04-03T18:47:40.745Z,1.90
2023-04-03T18:50:26.768Z,1.92
2023-04-03T18:53:12.676Z,2.30
2023-04-03T18:55:59.617Z,2.55
2023-04-03T18:58:45.798Z,1.95
2023-04-03T19:01:32.494Z,2.95
2023-04-03T19:04:18.733Z,3.63
2023-04-03T19:07:06.430Z,4.50
2023-04-03T19:09:52.562Z,3.25
2023-04-03T19:12:40.071Z,3.28
2023-04-03T19:15:26.566Z,2.17
2023-04-03T19:18:12.319Z,2.10
2023-04-03T19:20:59.121Z,1.90
2023-04-03T19:23:45.073Z,2.40
2023-04-03T19:26:33.284Z,2.88
2023-04-03T19:29:20.561Z,3.00
2023-04-03T19:32:06.494Z,2.38
2023-04-03T19:34:52.028Z,3.78
2023-04-03T19:37:38.488Z,2.47
2023-04-03T19:40:25.469Z,4.28
2023-04-03T19:43:12.160Z,3.13
2023-04-03T19:45:59.756Z,1.90
2023-04-03T19:48:47.312Z,2.65
2023-04-03T19:51:33.401Z,2.20
2023-04-03T19:54:19.810Z,3.35
2023-04-03T19:57:07.073Z,3.50
2023-04-03T19:59:53.105Z,2.42
2023-04-03T20:02:40.681Z,3.10
2023-04-03T20:05:26.863Z,2.20
2023-04-03T20:08:13.520Z,2.25
2023-04-03T20:10:59.287Z,2.88
2023-04-03T20:13:44.981Z,2.70
2023-04-03T20:16:31.086Z,3.60
2023-04-03T20:19:18.048Z,3.38
2023-04-03T20:22:03.715Z,3.13
2023-04-03T20:24:49.293Z,3.60
2023-04-03T20:27:35.466Z,4.45
2023-04-03T20:30:21.597Z,5.10
2023-04-03T20:33:07.668Z,4.28
2023-04-03T20:35:56.906Z,4.85
2023-04-03T20:38:42.987Z,4.15
2023-04-03T20:41:28.564Z,4.15
2023-04-03T20:44:15.504Z,3.35
2023-04-03T20:47:01.263Z,3.75
2023-04-03T20:49:46.800Z,3.92
2023-04-03T20:52:36.202Z,2.63
2023-04-03T20:55:22.676Z,2.58
2023-04-03T20:58:08.668Z,3.40
2023-04-03T21:00:56.564Z,4.35
2023-04-03T21:03:43.304Z,5.00
2023-04-03T21:07:06.819Z,4.22
2023-04-03T21:10:30.522Z,4.22
2023-04-03T21:13:53.812Z,2.63
2023-04-03T21:16:39.829Z,3.42
2023-04-03T21:19:27.082Z,2.78
2023-04-03T21:22:13.745Z,4.03
2023-04-03T21:24:59.581Z,5.57
2023-04-03T21:27:45.396Z,4.40
2023-04-03T21:30:31.555Z,3.38
2023-04-03T21:33:16.934Z,3.20
2023-04-03T21:36:04.427Z,4.22
2023-04-03T21:38:50.186Z,3.50
2023-04-03T21:41:35.959Z,3.30
2023-04-03T21:44:23.520Z,3.10
2023-04-03T21:47:09.172Z,3.65
2023-04-03T21:49:55.448Z,3.80
2023-04-03T21:52:42.892Z,3.63
2023-04-03T21:55:28.619Z,4.20
2023-04-03T21:58:14.236Z,4.07
2023-04-03T22:01:08.991Z,4.10
2023-04-03T22:03:58.213Z,4.10
2023-04-03T22:06:44.511Z,3.63
2023-04-03T22:09:31.376Z,3.90
2023-04-03T22:12:16.813Z,2.63
2023-04-03T22:15:03.133Z,2.90
2023-04-03T22:17:48.813Z,2.58
2023-04-03T22:20:34.494Z,4.22
2023-04-03T22:23:20.431Z,5.50
2023-04-03T22:26:09.261Z,3.35
2023-04-03T22:28:54.831Z,3.08
2023-04-03T22:31:42.342Z,2.50
2023-04-03T22:34:28.228Z,2.85
2023-04-03T22:37:13.794Z,3.85
2023-04-03T22:39:59.536Z,2.95
2023-04-03T22:42:48.924Z,3.05
2023-04-03T22:45:34.666Z,2.80
2023-04-03T22:48:20.820Z,2.72
2023-04-03T22:51:09.938Z,2.40
2023-04-03T22:53:55.508Z,2.30
2023-04-03T22:56:41.328Z,2.17
2023-04-03T22:59:28.455Z,2.30
2023-04-03T23:02:14.224Z,2.20
2023-04-03T23:04:59.978Z,2.85
2023-04-03T23:07:47.206Z,2.45
2023-04-03T23:10:33.140Z,2.15
2023-04-03T23:13:18.941Z,2.55
2023-04-03T23:16:06.734Z,1.95
2023-04-03T23:18:52.528Z,2.05
2023-04-03T23:21:37.795Z,2.00
2023-04-03T23:24:23.437Z,2.53
2023-04-03T23:27:09.217Z,1.85
2023-04-03T23:29:54.621Z,2.40
2023-04-03T23:32:41.801Z,1.92
2023-04-03T23:35:27.449Z,1.80
2023-04-03T23:38:13.379Z,1.83
2023-04-03T23:40:59.194Z,1.83
2023-04-03T23:43:46.463Z,1.90
2023-04-03T23:46:32.968Z,1.90
2023-04-03T23:49:20.068Z,1.90
2023-04-03T23:52:06.169Z,1.90
2023-04-03T23:54:51.950Z,2.05
2023-04-03T23:57:37.720Z,1.83
